Time;durP1;ratioP1;P1;durP2;ratioP2;P2;SDS_P1;SDS_P2;PMS_P1;PMS_P2;Temp;Humidity;BMP_temperature;BMP_pressure;BME280_temperature;BME280_humidity;BME280_pressure;Samples;Min_cycle;Max_cycle;Signal;HPM_P1;HPM_P2
2021/09/16 00:01:17;;;;;;;2.78;2.20;;;14.50;54.10;;;;;;5086966;28;20233;-51
2021/09/16 00:03:47;;;;;;;3.03;2.30;;;14.50;54.10;;;;;;5090116;28;20502;-47
2021/09/16 00:06:17;;;;;;;3.05;2.10;;;14.50;54.00;;;;;;5090908;28;20589;-50
2021/09/16 00:08:47;;;;;;;2.88;1.92;;;14.60;54.10;;;;;;5091049;28;20248;-53
2021/09/16 00:11:16;;;;;;;2.50;1.80;;;14.60;54.10;;;;;;5091847;28;20225;-46
2021/09/16 00:13:47;;;;;;;3.72;2.33;;;14.60;54.10;;;;;;5090690;28;20244;-50
2021/09/16 00:16:17;;;;;;;3.67;2.20;;;14.60;54.10;;;;;;5091750;28;20243;-54
2021/09/16 00:18:47;;;;;;;3.88;2.22;;;14.60;54.10;;;;;;5090261;28;20241;-53
2021/09/16 00:21:17;;;;;;;4.25;2.20;;;14.70;54.10;;;;;;5091095;28;20285;-57
2021/09/16 00:23:46;;;;;;;3.72;2.55;;;14.70;54.20;;;;;;5088131;28;20256;-51
2021/09/16 00:26:16;;;;;;;3.75;2.10;;;14.70;54.10;;;;;;5091836;28;20713;-49
2021/09/16 00:28:47;;;;;;;2.97;1.92;;;14.70;54.10;;;;;;5091576;28;20296;-48
2021/09/16 00:31:17;;;;;;;3.13;2.00;;;14.70;54.10;;;;;;5090816;28;20279;-56
2021/09/16 00:33:46;;;;;;;3.50;2.08;;;14.70;54.10;;;;;;5091945;28;20260;-57
2021/09/16 00:36:16;;;;;;;3.60;2.38;;;14.70;54.10;;;;;;5091752;28;20242;-56
2021/09/16 00:38:46;;;;;;;3.13;2.08;;;14.80;54.00;;;;;;5085130;28;20278;-58
2021/09/16 00:41:17;;;;;;;4.32;2.08;;;14.80;54.10;;;;;;5088428;28;20268;-54
2021/09/16 00:43:48;;;;;;;4.18;2.00;;;14.80;54.10;;;;;;5091625;28;20202;-58
2021/09/16 00:46:18;;;;;;;2.75;2.05;;;14.90;54.10;;;;;;5089133;28;20684;-58
2021/09/16 00:48:47;;;;;;;3.03;1.85;;;14.90;54.00;;;;;;5091073;28;20237;-56
2021/09/16 00:51:17;;;;;;;2.00;1.80;;;14.90;54.00;;;;;;5091699;28;20275;-47
2021/09/16 00:53:47;;;;;;;2.72;1.83;;;14.90;54.00;;;;;;5090141;28;20237;-54
2021/09/16 00:56:17;;;;;;;4.15;2.38;;;14.90;54.00;;;;;;5091325;28;20245;-57
2021/09/16 00:58:48;;;;;;;1.90;1.70;;;15.00;54.10;;;;;;5090696;28;20198;-54
2021/09/16 01:01:18;;;;;;;2.55;1.70;;;15.00;54.10;;;;;;5091842;28;20301;-52
2021/09/16 01:03:47;;;;;;;3.60;1.98;;;15.00;54.10;;;;;;5087961;28;20281;-49
2021/09/16 01:06:17;;;;;;;3.22;2.20;;;15.00;54.10;;;;;;5090859;28;20713;-47
2021/09/16 01:08:47;;;;;;;2.72;1.70;;;15.00;54.20;;;;;;5090341;28;20682;-46
2021/09/16 01:11:18;;;;;;;2.58;1.75;;;15.10;54.20;;;;;;5091203;28;20260;-48
2021/09/16 01:13:49;;;;;;;1.60;1.50;;;15.10;54.10;;;;;;5090645;28;20612;-52
2021/09/16 01:16:19;;;;;;;2.22;1.83;;;15.10;54.10;;;;;;5089522;28;20206;-52
2021/09/16 01:18:48;;;;;;;3.00;1.92;;;15.10;54.00;;;;;;5090902;28;20252;-54
2021/09/16 01:21:18;;;;;;;3.50;1.95;;;15.10;54.00;;;;;;5090178;28;20295;-52
2021/09/16 01:23:49;;;;;;;2.75;1.75;;;15.20;54.00;;;;;;5091251;28;20700;-55
2021/09/16 01:26:19;;;;;;;3.25;1.80;;;15.20;54.00;;;;;;5089712;28;20237;-56
2021/09/16 01:28:49;;;;;;;2.50;1.50;;;15.20;54.00;;;;;;5090219;28;20635;-59
2021/09/16 01:31:18;;;;;;;3.25;1.83;;;15.20;54.00;;;;;;5090462;28;20318;-57
2021/09/16 01:33:48;;;;;;;2.30;1.63;;;15.20;54.00;;;;;;5091438;28;20648;-57
2021/09/16 01:36:18;;;;;;;2.78;1.80;;;15.20;54.00;;;;;;5103608;28;20245;-48
2021/09/16 01:38:49;;;;;;;2.10;1.75;;;15.30;54.10;;;;;;5089855;28;20238;-49
2021/09/16 01:41:18;;;;;;;2.50;1.90;;;15.30;54.00;;;;;;5090296;28;20256;-51
2021/09/16 01:43:48;;;;;;;2.85;1.88;;;15.30;54.00;;;;;;5089895;28;20669;-50
2021/09/16 01:46:18;;;;;;;2.10;1.67;;;15.30;54.00;;;;;;5090979;28;20609;-54
2021/09/16 01:48:48;;;;;;;2.55;1.85;;;15.30;54.00;;;;;;5089321;28;20237;-49
2021/09/16 01:51:17;;;;;;;2.13;1.70;;;15.30;53.90;;;;;;5091155;28;20657;-57
2021/09/16 01:53:48;;;;;;;2.42;1.55;;;15.30;53.90;;;;;;5090455;28;20331;-56
2021/09/16 01:56:18;;;;;;;2.17;1.60;;;15.40;53.90;;;;;;5090060;28;20574;-57
2021/09/16 01:58:48;;;;;;;3.20;1.63;;;15.40;53.90;;;;;;5090871;28;20241;-53
2021/09/16 02:01:18;;;;;;;2.53;1.60;;;15.40;53.80;;;;;;5090285;28;20312;-55
2021/09/16 02:03:47;;;;;;;1.98;1.42;;;15.40;53.80;;;;;;5089522;28;20244;-55
2021/09/16 02:06:17;;;;;;;2.65;1.52;;;15.40;53.80;;;;;;5089286;28;20247;-48
2021/09/16 02:08:47;;;;;;;1.70;1.60;;;15.40;53.70;;;;;;5089723;28;20252;-48
2021/09/16 02:11:18;;;;;;;3.20;1.70;;;15.40;53.80;;;;;;5089503;28;20250;-51
2021/09/16 02:13:48;;;;;;;1.45;1.35;;;15.40;53.80;;;;;;5089502;28;20241;-47
2021/09/16 02:16:17;;;;;;;2.05;1.50;;;15.40;53.80;;;;;;5090699;28;20249;-55
2021/09/16 02:18:47;;;;;;;2.88;1.67;;;15.50;53.80;;;;;;5090983;28;20345;-52
2021/09/16 02:21:17;;;;;;;2.30;1.45;;;15.50;53.80;;;;;;5070952;28;20309;-49
2021/09/16 02:23:47;;;;;;;2.17;1.50;;;15.50;53.80;;;;;;5070541;28;20668;-53
2021/09/16 02:26:18;;;;;;;2.30;1.75;;;15.50;54.40;;;;;;5069819;28;20243;-54
2021/09/16 02:28:47;;;;;;;3.40;1.60;;;15.50;53.80;;;;;;5082529;28;20224;-50
2021/09/16 02:31:17;;;;;;;1.92;1.73;;;15.50;54.40;;;;;;5090513;28;20451;-52
2021/09/16 02:33:47;;;;;;;1.90;1.35;;;15.50;53.80;;;;;;5067758;28;20301;-49
2021/09/16 02:36:17;;;;;;;1.95;1.52;;;15.50;53.70;;;;;;5106632;28;20205;-57
2021/09/16 02:38:47;;;;;;;2.33;1.60;;;15.60;53.70;;;;;;5070388;28;20248;-49
2021/09/16 02:41:17;;;;;;;1.60;1.50;;;15.60;53.70;;;;;;5087451;28;20601;-56
2021/09/16 02:43:47;;;;;;;2.15;1.50;;;15.60;53.70;;;;;;5084809;28;20684;-58
2021/09/16 02:46:19;;;;;;;2.05;1.48;;;15.60;53.60;;;;;;5089309;28;20244;-55
2021/09/16 02:48:49;;;;;;;1.50;1.40;;;15.60;53.60;;;;;;5090245;28;20688;-57
2021/09/16 02:51:19;;;;;;;1.90;1.50;;;15.60;53.60;;;;;;5089119;28;20253;-51
2021/09/16 02:53:49;;;;;;;2.50;1.30;;;15.60;53.70;;;;;;5081853;28;20510;-49
2021/09/16 02:56:19;;;;;;;1.50;1.25;;;15.70;53.70;;;;;;5109715;28;20232;-56
2021/09/16 02:58:49;;;;;;;2.05;1.48;;;15.70;53.80;;;;;;5096535;28;20271;-49
2021/09/16 03:01:19;;;;;;;1.75;1.35;;;15.70;54.00;;;;;;5089193;28;20272;-56
2021/09/16 03:03:49;;;;;;;1.67;1.30;;;15.70;54.10;;;;;;5088086;28;20234;-53
2021/09/16 03:06:18;;;;;;;1.77;1.42;;;15.70;54.10;;;;;;5089170;28;20234;-49
2021/09/16 03:08:49;;;;;;;1.52;1.42;;;15.70;54.10;;;;;;5085619;28;20228;-51
2021/09/16 03:11:20;;;;;;;1.45;1.17;;;15.70;54.00;;;;;;5087302;28;20379;-52
2021/09/16 03:13:50;;;;;;;2.60;1.40;;;15.80;54.10;;;;;;5068970;28;20485;-54
2021/09/16 03:16:20;;;;;;;2.25;1.50;;;15.80;54.00;;;;;;5069703;28;20242;-59
2021/09/16 03:18:49;;;;;;;1.75;1.45;;;15.80;54.00;;;;;;5088680;28;20243;-54
2021/09/16 03:21:19;;;;;;;2.25;1.50;;;15.80;53.90;;;;;;5089760;28;20261;-50
2021/09/16 03:23:49;;;;;;;2.20;1.25;;;15.80;53.80;;;;;;5100911;28;20666;-58
2021/09/16 03:26:20;;;;;;;1.58;1.38;;;15.80;53.80;;;;;;5088243;28;20249;-51
2021/09/16 03:28:49;;;;;;;1.63;1.27;;;15.80;53.80;;;;;;5089666;28;20291;-58
2021/09/16 03:31:19;;;;;;;2.03;1.38;;;15.80;53.80;;;;;;5088232;28;20273;-55
2021/09/16 03:33:49;;;;;;;1.58;1.48;;;15.80;53.80;;;;;;5083888;28;20244;-48
2021/09/16 03:36:19;;;;;;;1.33;1.23;;;15.90;53.80;;;;;;5089042;28;20260;-54
2021/09/16 03:38:49;;;;;;;1.85;1.30;;;15.90;53.80;;;;;;5091973;28;20237;-57
2021/09/16 03:41:19;;;;;;;1.40;1.30;;;15.90;53.80;;;;;;5091689;28;20301;-52
2021/09/16 03:43:49;;;;;;;2.17;1.40;;;15.80;53.70;;;;;;5091172;28;20210;-50
2021/09/16 03:46:19;;;;;;;1.40;1.30;;;15.90;53.80;;;;;;5091855;28;20248;-54
2021/09/16 03:48:49;;;;;;;1.50;1.25;;;15.90;53.80;;;;;;5092928;28;20260;-56
2021/09/16 03:51:18;;;;;;;1.42;1.20;;;15.90;53.80;;;;;;5092858;28;20261;-55
2021/09/16 03:53:48;;;;;;;1.25;1.15;;;15.90;53.80;;;;;;5072081;28;20670;-54
2021/09/16 03:56:18;;;;;;;1.40;1.30;;;15.90;53.70;;;;;;5071953;28;20238;-55
2021/09/16 03:58:49;;;;;;;1.77;1.27;;;15.90;53.70;;;;;;5083568;28;20249;-52
2021/09/16 04:01:19;;;;;;;2.63;1.40;;;15.90;53.70;;;;;;5092505;28;20264;-59
2021/09/16 04:03:48;;;;;;;2.05;1.65;;;15.90;53.60;;;;;;5092617;28;20234;-54
2021/09/16 04:06:18;;;;;;;1.75;1.60;;;15.90;53.60;;;;;;5092535;28;20292;-57
2021/09/16 04:08:48;;;;;;;2.05;1.50;;;15.90;53.50;;;;;;5091568;28;20259;-53
2021/09/16 04:11:18;;;;;;;1.83;1.42;;;15.90;53.60;;;;;;5092294;28;20268;-57
2021/09/16 04:13:49;;;;;;;2.17;1.55;;;15.90;53.60;;;;;;5097256;28;20233;-55
2021/09/16 04:16:18;;;;;;;2.03;1.70;;;15.90;53.50;;;;;;5111095;28;20292;-51
2021/09/16 04:18:48;;;;;;;1.45;1.35;;;15.90;53.50;;;;;;5112356;28;20236;-54
2021/09/16 04:21:18;;;;;;;1.80;1.45;;;15.90;53.50;;;;;;5112207;28;20268;-58
2021/09/16 04:23:48;;;;;;;1.38;1.27;;;15.90;53.50;;;;;;5072241;28;20625;-51
2021/09/16 04:26:17;;;;;;;1.23;1.13;;;16.00;53.60;;;;;;5071416;28;20240;-53
2021/09/16 04:28:48;;;;;;;1.55;1.45;;;16.00;53.60;;;;;;5084031;28;20726;-52
2021/09/16 04:31:18;;;;;;;3.17;1.58;;;15.90;53.50;;;;;;5092303;28;20249;-59
2021/09/16 04:33:48;;;;;;;1.63;1.40;;;16.00;53.60;;;;;;5071098;28;20238;-53
2021/09/16 04:36:18;;;;;;;2.30;1.30;;;16.00;53.50;;;;;;5075400;28;20609;-52
2021/09/16 04:38:48;;;;;;;2.88;1.50;;;16.00;53.50;;;;;;5091230;28;20206;-58
2021/09/16 04:41:17;;;;;;;11.25;2.60;;;16.00;53.60;;;;;;5091789;28;20712;-52
2021/09/16 04:43:47;;;;;;;17.75;3.35;;;16.00;54.50;;;;;;5088065;28;20219;-56
2021/09/16 04:46:18;;;;;;;13.48;3.10;;;16.00;56.70;;;;;;5088725;28;20864;-57
2021/09/16 04:48:48;;;;;;;19.08;2.75;;;16.00;59.20;;;;;;5091517;28;20241;-58
2021/09/16 04:51:17;;;;;;;11.98;3.08;;;16.10;61.20;;;;;;5091264;28;20280;-58
2021/09/16 04:53:47;;;;;;;9.85;2.90;;;16.10;63.40;;;;;;5071682;28;20246;-59
2021/09/16 04:56:17;;;;;;;13.75;3.72;;;16.20;65.00;;;;;;5070785;28;20402;-57
2021/09/16 04:58:47;;;;;;;13.77;6.53;;;16.30;66.60;;;;;;5082837;28;20238;-57
2021/09/16 05:01:18;;;;;;;24.33;21.55;;;16.40;67.90;;;;;;5091245;28;20678;-55
2021/09/16 05:03:47;;;;;;;58.13;52.08;;;16.50;68.80;;;;;;5071174;28;20241;-58
2021/09/16 05:06:17;;;;;;;83.55;68.50;;;16.60;69.50;;;;;;5071599;28;20740;-58
2021/09/16 05:08:47;;;;;;;68.05;49.88;;;16.60;69.60;;;;;;5071623;28;20250;-57
2021/09/16 05:11:17;;;;;;;45.42;38.38;;;16.70;69.00;;;;;;5071370;28;20258;-58
2021/09/16 05:13:46;;;;;;;38.85;32.45;;;16.80;68.00;;;;;;5071056;28;20249;-58
2021/09/16 05:16:16;;;;;;;34.40;27.35;;;16.90;66.70;;;;;;5070996;28;20702;-57
2021/09/16 05:18:47;;;;;;;14.75;11.30;;;17.00;65.60;;;;;;5071492;28;20745;-54
2021/09/16 05:21:17;;;;;;;28.42;17.77;;;17.00;63.60;;;;;;5071194;28;20271;-56
2021/09/16 05:23:47;;;;;;;27.33;17.52;;;17.10;59.70;;;;;;5071775;28;20314;-49
2021/09/16 05:26:17;;;;;;;19.27;12.05;;;17.00;56.60;;;;;;5071350;28;20284;-50
2021/09/16 05:28:47;;;;;;;13.70;9.00;;;17.00;54.80;;;;;;5082434;28;20301;-61
2021/09/16 05:31:16;;;;;;;8.00;4.43;;;16.90;53.80;;;;;;5082397;28;20222;-48
2021/09/16 05:33:47;;;;;;;5.47;2.90;;;16.80;53.00;;;;;;5070710;28;20733;-49
2021/09/16 05:36:17;;;;;;;6.40;3.45;;;16.80;52.70;;;;;;5070785;28;20350;-49
2021/09/16 05:38:47;;;;;;;9.35;5.72;;;16.70;52.50;;;;;;5072913;28;20238;-49
2021/09/16 05:41:16;;;;;;;6.35;4.28;;;16.60;52.30;;;;;;5090000;28;20308;-48
2021/09/16 05:43:46;;;;;;;6.70;4.40;;;16.60;52.20;;;;;;5091266;28;20233;-53
2021/09/16 05:46:16;;;;;;;4.43;2.95;;;16.50;52.10;;;;;;5087830;28;20551;-47
2021/09/16 05:48:47;;;;;;;3.70;2.45;;;16.40;51.90;;;;;;5090857;28;20363;-44
2021/09/16 05:51:17;;;;;;;5.70;2.65;;;16.40;51.90;;;;;;5090328;28;20645;-46
2021/09/16 05:53:46;;;;;;;5.10;2.72;;;16.30;51.90;;;;;;5091096;28;20335;-53
2021/09/16 05:56:16;;;;;;;4.47;2.72;;;16.30;51.90;;;;;;5090391;28;20292;-48
2021/09/16 05:58:46;;;;;;;5.18;3.80;;;16.20;51.90;;;;;;5090338;28;20285;-50
2021/09/16 06:01:15;;;;;;;4.80;3.50;;;16.10;51.90;;;;;;5093845;28;20296;-54
2021/09/16 06:03:46;;;;;;;10.20;7.72;;;16.10;51.80;;;;;;5109662;28;20233;-52
2021/09/16 06:06:16;;;;;;;11.95;8.70;;;16.00;51.80;;;;;;5110666;28;20245;-51
2021/09/16 06:08:46;;;;;;;10.30;8.73;;;16.00;51.90;;;;;;5105801;28;20304;-54
2021/09/16 06:11:15;;;;;;;10.18;7.85;;;15.90;51.90;;;;;;5072188;28;20305;-60
2021/09/16 06:17:07;;;;;;;11.57;7.20;;;15.80;52.00;;;;;;5090902;28;20285;-57
2021/09/16 06:19:38;;;;;;;19.23;12.25;;;15.70;52.00;;;;;;5089986;28;20592;-54
2021/09/16 06:22:08;;;;;;;30.88;18.33;;;15.60;52.10;;;;;;5090359;28;20218;-60
2021/09/16 06:24:38;;;;;;;26.83;17.13;;;15.60;52.20;;;;;;5087389;28;20221;-58
2021/09/16 06:27:08;;;;;;;16.45;13.00;;;15.50;52.30;;;;;;5090059;28;20217;-61
2021/09/16 06:29:38;;;;;;;16.52;11.43;;;15.40;52.30;;;;;;5089441;28;20205;-59
2021/09/16 06:32:08;;;;;;;12.40;8.57;;;15.40;52.50;;;;;;5090177;28;20222;-59
2021/09/16 06:34:39;;;;;;;10.40;7.50;;;15.30;52.60;;;;;;5089803;28;20202;-55
2021/09/16 06:37:09;;;;;;;11.73;8.05;;;15.30;52.70;;;;;;5089817;28;20209;-50
2021/09/16 06:39:38;;;;;;;12.18;8.50;;;15.20;52.90;;;;;;5089189;28;20609;-53
2021/09/16 06:42:08;;;;;;;10.98;8.35;;;15.20;53.10;;;;;;5088480;28;20230;-56
2021/09/16 06:44:38;;;;;;;11.45;7.68;;;15.20;53.30;;;;;;5090221;28;20610;-53
2021/09/16 06:47:08;;;;;;;11.35;7.43;;;15.20;53.50;;;;;;5089002;28;20226;-50
2021/09/16 06:49:45;;;;;;;10.02;7.88;;;15.20;53.60;;;;;;5088313;28;20202;-54
2021/09/16 06:52:15;;;;;;;9.55;7.43;;;15.20;53.70;;;;;;5086570;28;20313;-54
2021/09/16 06:54:45;;;;;;;12.45;7.38;;;15.20;53.70;;;;;;5087957;28;20206;-56
2021/09/16 06:57:14;;;;;;;11.65;7.00;;;15.20;53.70;;;;;;5089674;28;20210;-55
2021/09/16 06:59:44;;;;;;;9.25;6.82;;;15.20;53.80;;;;;;5089416;28;20201;-55
2021/09/16 07:02:14;;;;;;;9.80;7.05;;;15.20;53.70;;;;;;5090326;28;20237;-52
2021/09/16 07:04:45;;;;;;;7.97;6.90;;;15.20;53.80;;;;;;5088243;28;20202;-56
2021/09/16 07:07:15;;;;;;;8.07;6.63;;;15.20;53.70;;;;;;5068843;28;20214;-56
2021/09/16 07:09:45;;;;;;;9.40;7.03;;;15.20;53.70;;;;;;5069230;28;20214;-47
2021/09/16 07:12:15;;;;;;;8.82;6.63;;;15.20;53.80;;;;;;5070350;28;20708;-50
2021/09/16 07:14:44;;;;;;;8.43;6.63;;;15.20;53.80;;;;;;5073651;28;20214;-55
2021/09/16 07:17:14;;;;;;;8.30;6.15;;;15.20;53.80;;;;;;5072970;28;20202;-47
2021/09/16 07:19:45;;;;;;;8.23;6.60;;;15.20;53.80;;;;;;5073468;28;20210;-48
2021/09/16 07:22:15;;;;;;;7.60;5.95;;;15.20;53.80;;;;;;5073038;28;20237;-50
2021/09/16 07:24:45;;;;;;;9.00;6.68;;;15.30;53.90;;;;;;5072842;28;20261;-56
2021/09/16 07:27:15;;;;;;;8.95;5.78;;;15.30;54.20;;;;;;5072828;28;20268;-50
2021/09/16 07:29:44;;;;;;;6.97;5.70;;;15.30;54.80;;;;;;5092695;28;20240;-55
2021/09/16 07:32:15;;;;;;;8.15;6.13;;;15.30;55.50;;;;;;5093531;28;20230;-54
2021/09/16 07:34:46;;;;;;;8.38;6.18;;;15.30;54.90;;;;;;5093199;28;20198;-53
2021/09/16 07:37:15;;;;;;;7.40;5.57;;;15.30;54.80;;;;;;5093073;28;20217;-49
2021/09/16 07:39:45;;;;;;;6.10;5.50;;;15.40;54.80;;;;;;5092950;28;20216;-54
2021/09/16 07:42:15;;;;;;;7.30;5.78;;;15.40;54.70;;;;;;5093093;28;20222;-54
2021/09/16 07:44:45;;;;;;;8.07;5.95;;;15.40;54.60;;;;;;5093418;28;20202;-50
2021/09/16 07:47:15;;;;;;;7.40;5.82;;;15.40;54.60;;;;;;5093070;28;20214;-53
2021/09/16 07:49:47;;;;;;;7.65;5.43;;;15.40;54.60;;;;;;5092953;28;20202;-53
2021/09/16 07:52:16;;;;;;;6.93;5.40;;;15.40;54.50;;;;;;5092671;28;20256;-50
2021/09/16 07:54:46;;;;;;;7.30;5.63;;;15.40;54.40;;;;;;5092470;28;20602;-50
2021/09/16 07:57:16;;;;;;;6.68;5.43;;;15.40;54.60;;;;;;5093010;28;20286;-49
2021/09/16 07:59:46;;;;;;;6.80;5.10;;;15.40;54.90;;;;;;5072412;28;20487;-53
2021/09/16 08:02:17;;;;;;;6.15;5.40;;;15.40;54.90;;;;;;5072703;28;20280;-52
2021/09/16 08:04:48;;;;;;;9.70;5.30;;;15.40;54.90;;;;;;5072670;28;20219;-53
2021/09/16 08:07:18;;;;;;;5.80;4.90;;;15.40;54.90;;;;;;5072176;28;20225;-52
2021/09/16 08:09:49;;;;;;;6.72;5.40;;;15.40;54.80;;;;;;5072356;28;20207;-53
2021/09/16 08:12:18;;;;;;;5.95;4.60;;;15.40;54.80;;;;;;5072453;28;20223;-53
2021/09/16 08:14:48;;;;;;;5.65;5.03;;;15.40;54.80;;;;;;5072749;28;20203;-52
2021/09/16 08:17:18;;;;;;;5.80;5.00;;;15.40;54.70;;;;;;5072521;28;20206;-55
2021/09/16 08:19:49;;;;;;;5.15;4.65;;;15.40;54.60;;;;;;5082978;28;20251;-50
2021/09/16 08:22:19;;;;;;;6.25;5.22;;;15.40;54.60;;;;;;5092279;28;20222;-51
2021/09/16 08:24:49;;;;;;;5.70;4.82;;;15.50;54.60;;;;;;5091214;28;20210;-54
2021/09/16 08:27:19;;;;;;;6.75;4.63;;;15.40;54.60;;;;;;5091697;28;20433;-48
2021/09/16 08:29:48;;;;;;;6.20;5.07;;;15.40;54.50;;;;;;5072083;28;20688;-52
2021/09/16 08:32:20;;;;;;;5.78;5.10;;;15.40;54.50;;;;;;5071708;28;20223;-52
2021/09/16 08:34:51;;;;;;;4.90;4.43;;;15.40;54.50;;;;;;5071985;28;20685;-48
2021/09/16 08:37:21;;;;;;;5.18;4.35;;;15.40;54.50;;;;;;5071882;28;20206;-54
2021/09/16 08:39:51;;;;;;;6.40;5.10;;;15.40;54.50;;;;;;5071485;28;20207;-52
2021/09/16 08:42:20;;;;;;;5.35;4.80;;;15.40;54.50;;;;;;5071727;28;20230;-53
2021/09/16 08:44:50;;;;;;;5.95;4.85;;;15.40;54.50;;;;;;5072345;28;20221;-51
2021/09/16 08:47:20;;;;;;;5.72;4.50;;;15.40;54.50;;;;;;5071569;28;20296;-50
2021/09/16 08:49:51;;;;;;;6.05;5.45;;;15.40;54.50;;;;;;5072009;28;20206;-54
2021/09/16 08:52:21;;;;;;;5.00;4.50;;;15.40;54.40;;;;;;5071203;28;20227;-53
2021/09/16 08:54:51;;;;;;;5.85;4.88;;;15.40;54.40;;;;;;5071090;28;20209;-48
2021/09/16 08:57:21;;;;;;;4.95;4.40;;;15.40;54.30;;;;;;5071672;28;20256;-57
2021/09/16 08:59:51;;;;;;;5.07;4.57;;;15.40;54.40;;;;;;5091875;28;20210;-52
2021/09/16 09:02:21;;;;;;;5.85;4.57;;;15.40;54.40;;;;;;5092088;28;20230;-55
2021/09/16 09:04:53;;;;;;;6.30;4.68;;;15.40;54.40;;;;;;5092116;28;20214;-53
2021/09/16 09:07:23;;;;;;;4.88;4.38;;;15.40;54.40;;;;;;5092095;28;20692;-51
2021/09/16 09:09:53;;;;;;;5.20;4.20;;;15.40;54.40;;;;;;5091245;28;20692;-46
2021/09/16 09:12:23;;;;;;;6.03;4.45;;;15.30;54.40;;;;;;5091296;28;20437;-53
2021/09/16 09:14:55;;;;;;;4.68;4.28;;;15.30;54.40;;;;;;5091463;28;20221;-47
2021/09/16 09:17:25;;;;;;;4.85;4.35;;;15.30;54.30;;;;;;5091577;28;20202;-49
2021/09/16 09:19:58;;;;;;;4.97;4.40;;;15.30;54.30;;;;;;5091411;28;20238;-48
2021/09/16 09:22:30;;;;;;;5.65;5.05;;;15.30;54.40;;;;;;5090588;28;20471;-51
2021/09/16 09:25:01;;;;;;;5.45;4.32;;;15.30;54.30;;;;;;5091114;28;20197;-50
2021/09/16 09:27:32;;;;;;;5.55;4.60;;;15.30;54.40;;;;;;5091495;28;20226;-52
2021/09/16 09:30:13;;;;;;;4.70;4.30;;;15.30;54.30;;;;;;5092065;28;20599;-53
2021/09/16 09:32:51;;;;;;;4.82;3.88;;;15.30;54.40;;;;;;5091622;28;20225;-49
2021/09/16 09:35:33;;;;;;;5.18;4.40;;;15.30;54.40;;;;;;5091458;28;20259;-52
2021/09/16 09:38:04;;;;;;;4.85;4.35;;;15.20;54.30;;;;;;5091370;28;20202;-52
2021/09/16 09:40:36;;;;;;;6.30;4.15;;;15.20;54.30;;;;;;5090861;28;20284;-51
2021/09/16 09:43:28;;;;;;;4.40;4.00;;;15.30;54.70;;;;;;5091294;28;20226;-55
2021/09/16 09:46:02;;;;;;;5.78;3.97;;;15.20;55.40;;;;;;5091467;28;20198;-59
2021/09/16 09:48:32;;;;;;;4.32;3.72;;;15.30;55.40;;;;;;5091614;28;20248;-58
2021/09/16 09:51:03;;;;;;;6.35;4.40;;;15.30;55.50;;;;;;5091378;28;20241;-55
2021/09/16 09:53:34;;;;;;;5.03;3.95;;;15.20;55.40;;;;;;5091197;28;20209;-57
2021/09/16 09:56:12;;;;;;;4.43;3.85;;;15.20;55.40;;;;;;5091131;28;20202;-52
2021/09/16 09:58:42;;;;;;;5.45;4.53;;;15.20;55.30;;;;;;5091480;28;20214;-53
2021/09/16 10:01:33;;;;;;;5.25;4.22;;;15.20;55.30;;;;;;5073856;28;20234;-48
2021/09/16 10:04:23;;;;;;;5.50;3.80;;;15.20;55.20;;;;;;5106227;28;20217;-50
2021/09/16 10:06:54;;;;;;;6.10;4.03;;;15.20;55.10;;;;;;5110298;28;20223;-55
2021/09/16 10:09:24;;;;;;;4.25;3.85;;;15.20;55.00;;;;;;5108140;28;20213;-53
2021/09/16 10:11:55;;;;;;;4.85;3.95;;;15.20;55.00;;;;;;5069260;28;20227;-51
2021/09/16 10:14:25;;;;;;;4.85;4.35;;;15.20;55.00;;;;;;5069631;28;20206;-58
2021/09/16 10:16:55;;;;;;;4.30;3.85;;;15.20;55.00;;;;;;5108286;28;20445;-49
2021/09/16 10:19:25;;;;;;;5.47;3.95;;;15.20;54.90;;;;;;5108279;28;20189;-48
2021/09/16 10:21:56;;;;;;;6.43;3.92;;;15.20;54.80;;;;;;5068822;28;20600;-54
2021/09/16 10:24:26;;;;;;;4.15;3.75;;;15.20;54.80;;;;;;5070825;28;20210;-49
2021/09/16 10:26:55;;;;;;;5.07;4.00;;;15.20;54.70;;;;;;5070113;28;20252;-49
2021/09/16 10:29:36;;;;;;;5.50;3.80;;;15.20;54.70;;;;;;5090079;28;20259;-50
2021/09/16 10:32:36;;;;;;;5.45;3.42;;;15.10;54.70;;;;;;5089776;28;20277;-52
2021/09/16 10:35:21;;;;;;;4.35;3.70;;;15.10;54.70;;;;;;5090093;28;20239;-50
2021/09/16 10:37:52;;;;;;;4.47;3.92;;;15.10;54.60;;;;;;5089185;28;20267;-51
2021/09/16 10:40:26;;;;;;;5.70;3.90;;;15.10;54.60;;;;;;5090443;28;20210;-47
2021/09/16 10:42:57;;;;;;;4.35;3.88;;;15.10;54.60;;;;;;5087706;28;20225;-52
2021/09/16 10:45:35;;;;;;;4.80;3.70;;;15.10;54.60;;;;;;5089549;28;20212;-50
2021/09/16 10:48:29;;;;;;;4.32;3.88;;;15.10;54.60;;;;;;5087006;28;20287;-57
2021/09/16 10:51:04;;;;;;;4.30;3.85;;;15.10;54.60;;;;;;5080617;28;20195;-50
2021/09/16 10:53:37;;;;;;;4.72;3.72;;;15.10;54.50;;;;;;5069867;28;20202;-50
2021/09/16 10:56:07;;;;;;;5.07;4.32;;;15.10;54.50;;;;;;5068727;28;20214;-50
2021/09/16 10:58:37;;;;;;;4.38;3.70;;;15.00;54.50;;;;;;5080273;28;20263;-52
2021/09/16 11:01:07;;;;;;;4.72;3.95;;;15.00;54.50;;;;;;5089723;28;20222;-50
2021/09/16 11:03:59;;;;;;;5.43;3.90;;;15.00;54.50;;;;;;5089902;28;20213;-54
2021/09/16 11:06:43;;;;;;;5.28;4.28;;;15.00;54.50;;;;;;5089262;28;20254;-55
2021/09/16 11:09:14;;;;;;;4.35;3.78;;;15.00;54.40;;;;;;5089214;28;20222;-50
2021/09/16 11:11:58;;;;;;;3.88;3.47;;;15.00;54.40;;;;;;5088312;28;20221;-53
2021/09/16 11:14:39;;;;;;;4.68;3.83;;;15.00;54.50;;;;;;5089243;28;20206;-52
2021/09/16 11:17:09;;;;;;;4.28;3.85;;;15.00;54.50;;;;;;5088371;28;20201;-49
2021/09/16 11:19:47;;;;;;;4.68;4.10;;;15.00;54.50;;;;;;5086101;28;20202;-56
2021/09/16 11:22:22;;;;;;;5.68;3.85;;;14.90;54.40;;;;;;5069121;28;20230;-50
2021/09/16 11:24:55;;;;;;;5.40;3.53;;;15.00;54.50;;;;;;5070005;28;20213;-47
2021/09/16 11:27:28;;;;;;;4.57;3.72;;;15.00;54.50;;;;;;5069284;28;20219;-48
2021/09/16 11:29:59;;;;;;;4.13;3.65;;;14.90;54.40;;;;;;5089330;28;20198;-49
2021/09/16 11:32:32;;;;;;;5.30;3.65;;;14.90;54.40;;;;;;5089026;28;20222;-47
2021/09/16 11:35:03;;;;;;;4.28;3.83;;;14.90;54.40;;;;;;5085484;28;20205;-53
2021/09/16 11:37:37;;;;;;;4.90;3.80;;;14.90;54.40;;;;;;5088781;28;20205;-53
2021/09/16 11:40:10;;;;;;;5.90;4.07;;;14.90;54.40;;;;;;5087662;28;20206;-52
2021/09/16 11:42:40;;;;;;;5.13;3.58;;;14.90;54.40;;;;;;5089095;28;20222;-52
2021/09/16 11:45:14;;;;;;;4.40;4.00;;;14.90;54.40;;;;;;5088809;28;20208;-45
2021/09/16 11:47:46;;;;;;;3.95;3.55;;;14.90;54.40;;;;;;5091253;28;20231;-50
2021/09/16 11:50:24;;;;;;;4.57;3.55;;;14.90;54.40;;;;;;5092475;28;20203;-50
2021/09/16 11:52:57;;;;;;;3.88;3.53;;;14.90;54.40;;;;;;5083060;28;20218;-53
2021/09/16 11:55:28;;;;;;;4.28;3.65;;;14.90;54.50;;;;;;5087041;28;20218;-51
2021/09/16 11:58:08;;;;;;;4.55;3.15;;;14.90;55.00;;;;;;5088069;28;20213;-50
2021/09/16 12:00:40;;;;;;;3.65;3.25;;;14.90;54.40;;;;;;5091801;28;20198;-55
2021/09/16 12:03:10;;;;;;;4.13;3.38;;;14.90;54.40;;;;;;5092940;28;20856;-51
2021/09/16 12:05:46;;;;;;;4.53;3.35;;;14.90;54.40;;;;;;5093054;28;20206;-57
2021/09/16 12:08:20;;;;;;;4.38;3.75;;;14.90;54.40;;;;;;5092115;28;20217;-52
2021/09/16 12:10:53;;;;;;;3.80;3.40;;;14.90;54.40;;;;;;5091914;28;20206;-55
2021/09/16 12:13:24;;;;;;;3.83;3.15;;;14.90;54.40;;;;;;5091058;28;20233;-55
2021/09/16 12:15:55;;;;;;;3.40;3.10;;;14.90;55.00;;;;;;5091647;28;20206;-57
2021/09/16 12:18:25;;;;;;;3.30;3.00;;;14.90;54.40;;;;;;5091758;28;20214;-57
2021/09/16 12:20:55;;;;;;;3.60;3.30;;;14.80;54.40;;;;;;5091754;28;20198;-56
2021/09/16 12:23:25;;;;;;;4.03;3.20;;;14.80;54.60;;;;;;5091879;28;20247;-56
2021/09/16 12:26:03;;;;;;;3.72;3.20;;;14.80;54.40;;;;;;5071743;28;20218;-51
2021/09/16 12:28:33;;;;;;;3.13;2.83;;;14.80;54.40;;;;;;5081314;28;20221;-57
2021/09/16 12:31:09;;;;;;;3.92;3.17;;;14.80;54.40;;;;;;5092102;28;20206;-56
2021/09/16 12:33:40;;;;;;;3.60;3.28;;;14.80;54.40;;;;;;5091313;28;20209;-49
2021/09/16 12:36:17;;;;;;;3.05;2.72;;;14.80;54.40;;;;;;5090395;28;20198;-51
2021/09/16 12:38:48;;;;;;;4.05;3.20;;;14.80;55.00;;;;;;5091672;28;20619;-52
2021/09/16 12:41:43;;;;;;;3.25;2.95;;;14.80;54.40;;;;;;5092040;28;20226;-53
2021/09/16 12:44:17;;;;;;;3.72;3.10;;;14.80;55.00;;;;;;5091420;28;20620;-52
2021/09/16 12:46:48;;;;;;;3.67;3.28;;;14.80;54.40;;;;;;5092126;28;20563;-56
2021/09/16 12:49:37;;;;;;;4.53;3.17;;;14.80;54.40;;;;;;5104383;28;20240;-48
2021/09/16 12:52:09;;;;;;;3.60;2.92;;;14.80;54.40;;;;;;5112332;28;20247;-50
2021/09/16 12:54:43;;;;;;;3.75;3.10;;;14.70;54.30;;;;;;5108408;28;20201;-48
2021/09/16 12:57:14;;;;;;;3.45;2.83;;;14.80;54.40;;;;;;5080970;28;20206;-52
2021/09/16 12:59:50;;;;;;;3.35;2.95;;;14.80;54.40;;;;;;5091763;28;20212;-56
2021/09/16 13:02:20;;;;;;;3.53;2.83;;;14.80;54.40;;;;;;5112270;28;20309;-50
2021/09/16 13:05:03;;;;;;;4.47;3.13;;;14.70;54.30;;;;;;5111697;28;20205;-49
2021/09/16 13:07:34;;;;;;;3.55;2.90;;;14.80;54.40;;;;;;5075095;28;20223;-51
2021/09/16 13:10:14;;;;;;;4.05;2.90;;;14.70;54.30;;;;;;5075976;28;20203;-50